Hlavní strana
METAR-TAF:

METAR-TAF

Letiště :

Albany, Georgie, Spojené státy americké

zeměpisná šířka: 31-32-08N, zeměpisná délka: 084-11-40W, výška: 60 m

Aktuální stav počasí

Zpráva byla vytvořena před 11 hodinami a 14 minutami, v 23:53 UTC
Jihovýchodní vítr 6 kt
Teplota 32°C
Vlhkost vzduchu 46%
Tlak 1020 hPa
Viditelnost: 16.1 km
Jasno

METAR: KABY 232353Z 13006KT 10SM CLR 32/19 A3013

Čas: 07:07 (11:07 UTC)

Předpověď počasí

Zpráva byla vytvořena před 5 hodinami a 45 minutami, v 05:22 UTC
Předpověď platná od 24 v 06 UTC do 25 v 06 UTC
vítr z různých směrů 6 kt
Viditelnost: 10 km
Jasno

TAF: KABY 240522Z 2406/2506 VRB06KT P6SM SKC

Stav a předpovědi počasí z více než 4 000 letišť (zprávy METAR a TAF).

Červené a žluté tečky na mapě představují dostupné meteorologické stanice.

Když kurzor umístíte na tečku, zobrazí se název stanice.

Pak kliknutím zobrazíte stav a předpověď počasí.

Chcete-li změnit mapu, kliknutím na zelené tlačítko se znaménkem +mapu přiblížíte, kliknutím na zelené tlačítko se znaménkem – mapu oddálíte a kliknutím na zelené šipky přejdete na sousední mapy.


METAR-TAF: